Fox Chase Manor, Pennsylvania
Current Conditions -  °F | °C
As of 10:54 PM on Tuesday 27 Jan 2015 (Local Time) from KPNE Reporting Station
Clear Clear  
Wind Chill:   Ceiling: Unl
Heat Index: 21°   Visibility: 10mi
Dew Point:   Wind: 21mph
Humidity: 50%   Direction: 330°NNW
Pressure: 29.9"   Gusts: 29mph
Location:  40.1039°N, 75.1072°W
Report Text: KPNE 280354Z AUTO 33018G25KT 10SM CLR M06/M15 A2990 RMK AO2 SLP126 T10611150 TSNO
Loading
Personal Weather Stations






























Interactive Weather Map New forecast layout! Learn more

10-Day Weather Forecast

Advertisements
Track Severe Weather on mobile